createdAt,value
2022-12-11T00:01:16.996Z,48.13
2022-12-11T00:03:45.749Z,47.17
2022-12-11T00:06:18.352Z,49.53
2022-12-11T00:08:46.872Z,54.40
2022-12-11T00:11:16.809Z,54.90
2022-12-11T00:13:45.576Z,48.75
2022-12-11T00:16:15.540Z,54.03
2022-12-11T00:18:44.153Z,52.78
2022-12-11T00:21:15.997Z,52.38
2022-12-11T00:23:44.886Z,49.50
2022-12-11T00:26:15.649Z,51.40
2022-12-11T00:28:44.789Z,51.33
2022-12-11T00:31:17.203Z,50.65
2022-12-11T00:33:49.017Z,52.28
2022-12-11T00:36:20.847Z,49.08
2022-12-11T00:38:50.652Z,54.88
2022-12-11T00:41:19.286Z,48.95
2022-12-11T00:43:48.598Z,50.50
2022-12-11T00:46:17.243Z,49.47
2022-12-11T00:48:46.276Z,51.58
2022-12-11T00:51:14.550Z,52.33
2022-12-11T00:53:44.875Z,49.78
2022-12-11T00:56:15.078Z,48.53
2022-12-11T00:58:43.378Z,51.17
2022-12-11T01:01:13.812Z,51.60
2022-12-11T01:03:42.303Z,52.47
2022-12-11T01:06:15.481Z,47.50
2022-12-11T01:08:46.065Z,50.75
2022-12-11T01:11:15.800Z,49.17
2022-12-11T01:13:44.926Z,51.15
2022-12-11T01:16:15.183Z,49.20
2022-12-11T01:18:46.646Z,52.65
2022-12-11T01:21:15.237Z,50.90
2022-12-11T01:23:44.963Z,50.95
2022-12-11T01:26:15.621Z,57.28
2022-12-11T01:28:44.415Z,50.97
2022-12-11T01:31:13.931Z,57.88
2022-12-11T01:33:43.283Z,51.95
2022-12-11T01:36:14.108Z,55.60
2022-12-11T01:38:44.087Z,54.55
2022-12-11T01:41:13.268Z,57.97
2022-12-11T01:44:01.935Z,58.67
2022-12-11T01:46:31.900Z,54.22
2022-12-11T01:49:01.877Z,54.72
2022-12-11T01:51:32.598Z,52.72
2022-12-11T01:54:06.497Z,55.63
2022-12-11T01:56:37.371Z,51.67
2022-12-11T01:59:07.922Z,49.63
2022-12-11T02:01:40.783Z,54.05
2022-12-11T02:04:11.068Z,52.97
2022-12-11T02:06:42.968Z,53.90
2022-12-11T02:09:15.536Z,47.10
2022-12-11T02:11:54.093Z,52.15
2022-12-11T02:14:29.919Z,54.05
2022-12-11T02:17:02.362Z,52.35
2022-12-11T02:19:46.168Z,51.30
2022-12-11T02:22:23.125Z,50.55
2022-12-11T02:25:05.181Z,53.92
2022-12-11T02:27:43.290Z,50.50
2022-12-11T02:30:15.009Z,52.97
2022-12-11T02:32:49.265Z,53.90
2022-12-11T02:35:22.608Z,52.30
2022-12-11T02:37:57.975Z,49.40
2022-12-11T02:40:29.905Z,49.58
2022-12-11T02:43:01.469Z,56.03
2022-12-11T02:45:32.473Z,53.20
2022-12-11T02:48:04.659Z,55.30
2022-12-11T02:50:34.457Z,50.55
2022-12-11T02:53:05.604Z,57.55
2022-12-11T02:55:34.760Z,59.17
2022-12-11T02:58:08.611Z,56.97
2022-12-11T03:00:38.197Z,54.95
2022-12-11T03:03:07.184Z,56.83
2022-12-11T03:05:35.652Z,67.90
2022-12-11T03:08:04.557Z,58.95
2022-12-11T03:10:33.397Z,61.15
2022-12-11T03:13:02.676Z,59.03
2022-12-11T03:15:36.169Z,58.80
2022-12-11T03:18:15.480Z,58.78
2022-12-11T03:20:46.052Z,54.85
2022-12-11T03:23:21.593Z,56.10
2022-12-11T03:25:55.869Z,56.40
2022-12-11T03:28:30.544Z,59.88
2022-12-11T03:31:04.296Z,54.00
2022-12-11T03:33:37.951Z,58.47
2022-12-11T03:38:40.382Z,52.85
2022-12-11T03:41:10.109Z,61.03
2022-12-11T03:43:39.746Z,59.53
2022-12-11T03:46:10.457Z,60.17
2022-12-11T03:48:43.486Z,58.40
2022-12-11T03:51:11.990Z,60.33
2022-12-11T03:53:40.891Z,62.55
2022-12-11T03:56:11.410Z,55.45
2022-12-11T03:58:39.964Z,59.63
2022-12-11T04:01:10.635Z,63.10
2022-12-11T04:03:40.923Z,58.95
2022-12-11T04:06:09.542Z,59.78
2022-12-11T04:08:37.803Z,58.58
2022-12-11T04:11:23.981Z,65.88
2022-12-11T04:14:12.344Z,59.78
2022-12-11T04:16:39.752Z,60.80
2022-12-11T04:19:27.971Z,63.22
2022-12-11T04:22:14.251Z,59.28
2022-12-11T04:24:42.766Z,59.30
2022-12-11T04:27:11.059Z,60.65
2022-12-11T04:29:39.502Z,64.25
2022-12-11T04:32:07.836Z,62.75
2022-12-11T04:34:37.456Z,64.18
2022-12-11T04:37:05.926Z,63.88
2022-12-11T04:39:34.211Z,61.85
2022-12-11T04:42:02.470Z,67.00
2022-12-11T04:44:31.054Z,65.65
2022-12-11T04:46:59.335Z,65.97
2022-12-11T04:49:27.554Z,63.35
2022-12-11T04:51:57.233Z,70.60
2022-12-11T04:54:25.756Z,71.05
2022-12-11T04:56:53.945Z,66.72
2022-12-11T04:59:22.658Z,70.65
2022-12-11T05:01:51.112Z,67.57
2022-12-11T05:04:19.492Z,72.82
2022-12-11T05:06:50.638Z,72.90
2022-12-11T05:09:20.214Z,73.00
2022-12-11T05:11:48.496Z,74.93
2022-12-11T05:14:17.207Z,71.05
2022-12-11T05:16:47.366Z,73.55
2022-12-11T05:19:15.814Z,78.70
2022-12-11T05:21:44.314Z,79.50
2022-12-11T05:24:12.619Z,78.15
2022-12-11T05:26:42.653Z,77.00
2022-12-11T05:29:11.174Z,73.13
2022-12-11T05:31:39.491Z,76.72
2022-12-11T05:34:08.007Z,77.32
2022-12-11T05:36:36.368Z,78.93
2022-12-11T05:39:06.152Z,77.68
2022-12-11T05:41:34.401Z,74.35
2022-12-11T05:44:04.342Z,76.20
2022-12-11T05:46:32.960Z,74.05
2022-12-11T05:49:03.705Z,76.80
2022-12-11T05:51:34.644Z,82.03
2022-12-11T05:54:03.969Z,74.78
2022-12-11T05:56:34.073Z,75.03
2022-12-11T05:59:06.224Z,72.15
2022-12-11T06:01:37.911Z,75.55
2022-12-11T06:04:07.942Z,76.13
2022-12-11T06:06:36.343Z,79.35
2022-12-11T06:09:06.426Z,77.05
2022-12-11T06:11:35.959Z,78.20
2022-12-11T06:14:06.048Z,78.97
2022-12-11T06:16:34.710Z,73.53
2022-12-11T06:19:03.381Z,73.72
2022-12-11T06:21:33.706Z,75.68
2022-12-11T06:24:04.049Z,75.45
2022-12-11T06:26:32.746Z,69.78
2022-12-11T06:29:01.139Z,72.15
2022-12-11T06:31:31.118Z,71.72
2022-12-11T06:33:59.629Z,74.35
2022-12-11T06:36:27.808Z,73.13
2022-12-11T06:38:56.697Z,68.32
2022-12-11T06:41:25.457Z,70.00
2022-12-11T06:43:53.728Z,71.28
2022-12-11T06:46:22.705Z,70.03
2022-12-11T06:48:52.712Z,73.13
2022-12-11T06:51:23.273Z,66.80
2022-12-11T06:53:54.232Z,69.47
2022-12-11T06:56:22.909Z,68.50
2022-12-11T06:58:52.105Z,68.60
2022-12-11T07:01:23.051Z,73.43
2022-12-11T07:03:54.951Z,76.43
2022-12-11T07:06:24.084Z,68.55
2022-12-11T07:08:52.601Z,76.32
2022-12-11T07:11:21.473Z,73.15
2022-12-11T07:13:50.337Z,70.90
2022-12-11T07:16:19.357Z,72.05
2022-12-11T07:18:50.691Z,74.63
2022-12-11T07:21:21.885Z,73.40
2022-12-11T07:23:51.031Z,72.50
2022-12-11T07:26:21.543Z,70.20
2022-12-11T07:28:50.116Z,69.53
2022-12-11T07:31:25.148Z,66.90
2022-12-11T07:33:55.072Z,72.85
2022-12-11T07:36:25.685Z,70.78
2022-12-11T07:38:55.509Z,67.63
2022-12-11T07:41:24.907Z,64.75
2022-12-11T07:43:53.131Z,69.00
2022-12-11T07:46:23.574Z,75.00
2022-12-11T07:48:52.245Z,69.70
2022-12-11T07:51:22.831Z,68.63
2022-12-11T07:53:53.680Z,74.75
2022-12-11T07:56:22.457Z,70.00
2022-12-11T07:58:51.394Z,74.90
2022-12-11T08:01:22.172Z,72.90
2022-12-11T08:03:50.736Z,71.95
2022-12-11T08:06:22.152Z,73.43
2022-12-11T08:08:52.024Z,69.13
2022-12-11T08:11:20.150Z,70.85
2022-12-11T08:13:48.326Z,71.53
2022-12-11T08:16:18.211Z,70.75
2022-12-11T08:18:47.456Z,73.82
2022-12-11T08:21:17.857Z,78.25
2022-12-11T08:23:46.953Z,73.32
2022-12-11T08:26:18.782Z,77.03
2022-12-11T08:28:47.136Z,75.57
2022-12-11T08:31:16.846Z,75.57
2022-12-11T08:33:46.057Z,71.72
2022-12-11T08:36:16.180Z,73.57
2022-12-11T08:38:44.695Z,75.55
2022-12-11T08:41:13.659Z,82.85
2022-12-11T08:43:44.136Z,72.93
2022-12-11T08:46:13.863Z,70.68
2022-12-11T08:48:43.819Z,70.68
2022-12-11T08:51:14.917Z,76.20
2022-12-11T08:53:43.452Z,78.63
2022-12-11T08:56:13.914Z,84.72
2022-12-11T08:58:43.766Z,75.45
2022-12-11T09:01:14.319Z,72.18
2022-12-11T09:03:43.081Z,74.13
2022-12-11T09:06:14.112Z,73.80
2022-12-11T09:08:47.203Z,72.03
2022-12-11T09:11:20.790Z,70.07
2022-12-11T09:13:50.775Z,70.03
2022-12-11T09:16:23.336Z,65.95
2022-12-11T09:18:53.584Z,68.80
2022-12-11T09:21:24.667Z,67.53
2022-12-11T09:23:55.811Z,69.45
2022-12-11T09:26:24.557Z,68.45
2022-12-11T09:28:55.077Z,64.00
2022-12-11T09:31:25.793Z,65.68
2022-12-11T09:33:57.729Z,62.30
2022-12-11T09:36:26.338Z,64.65
2022-12-11T09:38:54.952Z,57.00
2022-12-11T09:41:38.844Z,61.47
2022-12-11T09:46:47.107Z,63.22
2022-12-11T09:49:25.391Z,58.95
2022-12-11T09:52:03.447Z,53.42
2022-12-11T09:54:31.786Z,60.72
2022-12-11T09:57:11.884Z,55.20
2022-12-11T09:59:51.966Z,55.53
2022-12-11T10:02:29.945Z,55.35
2022-12-11T10:05:13.890Z,55.10
2022-12-11T10:07:50.678Z,54.65
2022-12-11T10:10:28.679Z,49.83
2022-12-11T10:13:06.775Z,47.58
2022-12-11T10:15:43.307Z,52.53
2022-12-11T10:18:17.290Z,44.50
2022-12-11T10:20:46.569Z,46.30
2022-12-11T10:23:20.111Z,43.53
2022-12-11T10:25:54.722Z,48.28
2022-12-11T10:28:23.376Z,40.05
2022-12-11T10:31:02.487Z,39.35
2022-12-11T10:33:38.187Z,35.70
2022-12-11T10:36:09.185Z,39.17
2022-12-11T10:38:42.552Z,42.35
2022-12-11T10:41:15.028Z,43.83
2022-12-11T10:43:46.141Z,49.08
2022-12-11T10:46:21.063Z,46.40
2022-12-11T10:48:53.437Z,44.00
2022-12-11T10:51:23.962Z,46.97
2022-12-11T10:53:53.221Z,45.35
2022-12-11T10:56:28.783Z,43.20
2022-12-11T10:58:58.880Z,44.45
2022-12-11T11:01:31.527Z,46.30
2022-12-11T11:04:04.346Z,44.97
2022-12-11T11:06:32.762Z,44.67
2022-12-11T11:09:03.043Z,45.80
2022-12-11T11:11:34.336Z,47.63
2022-12-11T11:14:08.244Z,42.88
2022-12-11T11:16:39.866Z,46.55
2022-12-11T11:19:09.166Z,44.22
2022-12-11T11:21:37.480Z,45.13
2022-12-11T11:24:06.049Z,44.42
2022-12-11T11:27:04.765Z,43.28
2022-12-11T11:29:31.030Z,43.50
2022-12-11T11:32:15.595Z,43.85
2022-12-11T11:34:43.968Z,39.05
2022-12-11T11:37:26.234Z,39.90
2022-12-11T11:39:59.288Z,42.75
2022-12-11T11:42:39.219Z,42.83
2022-12-11T11:45:16.903Z,41.67
2022-12-11T11:47:54.125Z,38.92
2022-12-11T11:50:28.589Z,41.95
2022-12-11T11:53:04.052Z,37.75
2022-12-11T11:55:42.479Z,36.80
2022-12-11T11:58:16.618Z,40.90
2022-12-11T12:00:45.175Z,36.60
2022-12-11T12:03:18.548Z,41.80
2022-12-11T12:05:53.577Z,39.17
2022-12-11T12:08:35.213Z,41.20
2022-12-11T12:11:13.253Z,40.60
2022-12-11T12:13:51.579Z,39.40
2022-12-11T12:16:52.275Z,41.35
2022-12-11T12:19:37.151Z,39.70
2022-12-11T12:22:21.454Z,40.15
2022-12-11T12:25:02.241Z,42.90
2022-12-11T12:27:54.768Z,41.33
2022-12-11T12:30:24.214Z,42.45
2022-12-11T12:33:16.339Z,39.03
2022-12-11T12:35:55.152Z,39.60
2022-12-11T12:38:31.870Z,42.95
2022-12-11T12:41:08.707Z,39.50
2022-12-11T12:43:56.173Z,41.88
2022-12-11T12:46:35.477Z,38.58
2022-12-11T12:49:05.166Z,37.17
2022-12-11T12:51:35.013Z,40.10
2022-12-11T12:54:11.969Z,34.38
2022-12-11T12:56:43.834Z,37.60
2022-12-11T12:59:21.925Z,36.53
2022-12-11T13:01:55.409Z,33.30
2022-12-11T13:04:59.207Z,36.42
2022-12-11T13:07:31.870Z,36.97
2022-12-11T13:10:04.551Z,34.78
2022-12-11T13:12:44.319Z,35.50
2022-12-11T13:15:26.192Z,33.03
2022-12-11T13:17:54.871Z,41.85
2022-12-11T13:20:24.621Z,37.65
2022-12-11T13:22:57.397Z,35.50
2022-12-11T13:25:29.203Z,38.17
2022-12-11T13:28:08.392Z,34.80
2022-12-11T13:30:36.824Z,35.28
2022-12-11T13:33:07.653Z,36.17
2022-12-11T13:35:36.653Z,34.75
2022-12-11T13:38:16.890Z,94.90
2022-12-11T13:40:46.791Z,46.88
2022-12-11T13:43:21.153Z,38.70
2022-12-11T13:45:52.342Z,40.08
2022-12-11T13:48:24.958Z,34.95
2022-12-11T13:50:54.831Z,34.95
2022-12-11T13:53:25.018Z,32.15
2022-12-11T13:56:00.700Z,36.25
2022-12-11T13:58:31.127Z,34.72
2022-12-11T14:01:08.979Z,35.25
2022-12-11T14:03:37.579Z,34.33
2022-12-11T14:06:06.694Z,37.95
2022-12-11T14:08:39.421Z,37.70
2022-12-11T14:11:07.902Z,32.27
2022-12-11T14:13:41.129Z,33.33
2022-12-11T14:16:09.667Z,32.33
2022-12-11T14:18:38.579Z,32.60
2022-12-11T14:21:07.904Z,32.00
2022-12-11T14:23:38.609Z,30.05
2022-12-11T14:26:18.857Z,30.75
2022-12-11T14:28:47.636Z,28.73
2022-12-11T14:31:19.868Z,29.05
2022-12-11T14:33:53.020Z,31.35
2022-12-11T14:36:22.307Z,49.85
2022-12-11T14:38:57.298Z,31.33
2022-12-11T14:41:30.953Z,29.00
2022-12-11T14:46:38.132Z,27.98
2022-12-11T14:49:13.773Z,28.83
2022-12-11T14:51:43.521Z,30.52
2022-12-11T14:54:20.799Z,32.92
2022-12-11T14:56:49.517Z,32.03
2022-12-11T14:59:26.918Z,32.55
2022-12-11T15:02:01.837Z,37.20
2022-12-11T15:04:32.480Z,38.53
2022-12-11T15:07:01.818Z,35.13
2022-12-11T15:09:40.866Z,35.30
2022-12-11T15:12:13.472Z,31.40
2022-12-11T15:14:48.905Z,35.65
2022-12-11T15:17:18.666Z,32.80
2022-12-11T15:19:51.696Z,33.97
2022-12-11T15:22:25.292Z,32.03
2022-12-11T15:27:31.316Z,32.05
2022-12-11T15:30:00.154Z,32.40
2022-12-11T15:32:28.867Z,34.67
2022-12-11T15:34:58.660Z,39.72
2022-12-11T15:37:28.942Z,43.50
2022-12-11T15:40:01.529Z,37.55
2022-12-11T15:42:33.291Z,29.63
2022-12-11T15:45:02.852Z,31.20
2022-12-11T15:47:33.827Z,31.27
2022-12-11T15:50:04.374Z,30.88
2022-12-11T15:52:34.529Z,29.45
2022-12-11T15:55:04.740Z,27.73
2022-12-11T15:57:33.424Z,28.33
2022-12-11T16:00:01.826Z,27.13
2022-12-11T16:02:30.108Z,26.35
2022-12-11T16:04:58.726Z,29.92
2022-12-11T16:07:27.999Z,32.05
2022-12-11T16:09:56.238Z,32.50
2022-12-11T16:12:26.070Z,26.75
2022-12-11T16:14:54.274Z,32.60
2022-12-11T16:17:22.545Z,23.92
2022-12-11T16:19:50.758Z,29.17
2022-12-11T16:22:19.593Z,29.00
2022-12-11T16:24:47.971Z,28.83
2022-12-11T16:27:21.433Z,26.58
2022-12-11T16:29:53.270Z,32.55
2022-12-11T16:32:21.730Z,32.13
2022-12-11T16:34:49.921Z,32.03
2022-12-11T16:37:18.232Z,30.25
2022-12-11T16:39:46.991Z,32.08
2022-12-11T16:42:15.234Z,31.13
2022-12-11T16:44:44.540Z,31.42
2022-12-11T16:47:14.149Z,38.72
2022-12-11T16:49:43.302Z,46.08
2022-12-11T16:52:11.908Z,34.92
2022-12-11T16:54:40.140Z,29.65
2022-12-11T16:57:08.361Z,29.92
2022-12-11T16:59:37.796Z,29.95
2022-12-11T17:02:06.576Z,31.88
2022-12-11T17:04:37.282Z,32.25
2022-12-11T17:07:06.043Z,32.63
2022-12-11T17:09:35.208Z,32.22
2022-12-11T17:12:03.831Z,30.88
2022-12-11T17:14:32.664Z,29.60
2022-12-11T17:17:00.984Z,29.77
2022-12-11T17:19:29.419Z,31.17
2022-12-11T17:21:59.148Z,30.63
2022-12-11T17:24:27.635Z,28.95
2022-12-11T17:26:56.507Z,30.83
2022-12-11T17:29:24.889Z,32.35
2022-12-11T17:31:53.113Z,28.83
2022-12-11T17:34:21.422Z,33.22
2022-12-11T17:36:49.772Z,29.45
2022-12-11T17:39:19.548Z,31.63
2022-12-11T17:41:48.184Z,29.77
2022-12-11T17:44:16.609Z,30.25
2022-12-11T17:46:44.835Z,28.55
2022-12-11T17:49:13.286Z,31.80
2022-12-11T17:51:41.424Z,29.80
2022-12-11T17:54:09.701Z,30.98
2022-12-11T17:56:39.367Z,29.55
2022-12-11T17:59:08.050Z,31.67
2022-12-11T18:01:36.334Z,30.08
2022-12-11T18:04:05.589Z,32.95
2022-12-11T18:06:34.348Z,28.73
2022-12-11T18:09:02.648Z,31.88
2022-12-11T18:11:30.974Z,31.75
2022-12-11T18:14:00.815Z,30.90
2022-12-11T18:16:30.965Z,28.55
2022-12-11T18:18:59.483Z,29.58
2022-12-11T18:21:30.433Z,31.10
2022-12-11T18:23:59.361Z,27.77
2022-12-11T18:26:28.133Z,32.78
2022-12-11T18:28:56.436Z,32.53
2022-12-11T18:31:26.067Z,33.00
2022-12-11T18:33:54.695Z,32.20
2022-12-11T18:36:23.058Z,28.45
2022-12-11T18:38:51.263Z,35.25
2022-12-11T18:41:20.794Z,30.63
2022-12-11T18:43:49.140Z,32.15
2022-12-11T18:46:19.973Z,35.90
2022-12-11T18:48:50.855Z,31.77
2022-12-11T18:51:22.682Z,28.77
2022-12-11T18:53:51.836Z,30.33
2022-12-11T18:56:21.507Z,32.70
2022-12-11T18:58:50.077Z,32.92
2022-12-11T19:01:22.383Z,30.95
2022-12-11T19:04:00.613Z,30.67
2022-12-11T19:06:32.323Z,33.50
2022-12-11T19:09:01.050Z,31.88
2022-12-11T19:11:31.479Z,30.20
2022-12-11T19:14:00.519Z,29.60
2022-12-11T19:16:31.100Z,32.03
2022-12-11T19:19:03.230Z,31.75
2022-12-11T19:21:31.815Z,31.92
2022-12-11T19:24:00.560Z,32.03
2022-12-11T19:26:29.066Z,33.05
2022-12-11T19:29:00.115Z,32.72
2022-12-11T19:31:31.262Z,33.60
2022-12-11T19:34:02.078Z,35.33
2022-12-11T19:36:31.658Z,35.45
2022-12-11T19:39:02.224Z,34.60
2022-12-11T19:41:33.100Z,34.75
2022-12-11T19:44:02.161Z,33.30
2022-12-11T19:46:31.140Z,40.58
2022-12-11T19:49:01.555Z,38.97
2022-12-11T19:51:31.562Z,42.97
2022-12-11T19:54:02.808Z,39.20
2022-12-11T19:56:31.866Z,35.80
2022-12-11T19:59:00.907Z,39.22
2022-12-11T20:01:31.157Z,36.35
2022-12-11T20:04:02.986Z,39.45
2022-12-11T20:06:33.199Z,37.47
2022-12-11T20:09:02.283Z,37.80
2022-12-11T20:11:30.844Z,38.50
2022-12-11T20:13:59.230Z,44.53
2022-12-11T20:16:53.714Z,38.65
2022-12-11T20:19:19.728Z,36.65
2022-12-11T20:21:48.099Z,43.65
2022-12-11T20:24:16.299Z,41.72
2022-12-11T20:26:44.691Z,35.10
2022-12-11T20:29:13.899Z,40.60
2022-12-11T20:31:42.992Z,40.03
2022-12-11T20:34:14.132Z,39.70
2022-12-11T20:36:44.227Z,38.17
2022-12-11T20:39:12.560Z,42.42
2022-12-11T20:41:40.981Z,39.25
2022-12-11T20:44:09.281Z,42.10
2022-12-11T20:46:37.640Z,46.47
2022-12-11T20:49:10.040Z,42.80
2022-12-11T20:51:38.562Z,44.90
2022-12-11T20:54:08.228Z,45.42
2022-12-11T20:56:36.513Z,48.40
2022-12-11T20:59:05.057Z,46.08
2022-12-11T21:01:34.909Z,48.33
2022-12-11T21:04:03.248Z,45.97
2022-12-11T21:06:33.046Z,46.78
2022-12-11T21:09:02.607Z,44.65
2022-12-11T21:11:32.807Z,46.40
2022-12-11T21:14:03.180Z,44.80
2022-12-11T21:16:31.409Z,45.85
2022-12-11T21:19:00.050Z,44.70
2022-12-11T21:21:28.365Z,44.83
2022-12-11T21:23:56.960Z,45.58
2022-12-11T21:26:25.511Z,42.40
2022-12-11T21:28:55.189Z,41.38
2022-12-11T21:31:23.642Z,39.42
2022-12-11T21:33:52.658Z,43.08
2022-12-11T21:36:20.905Z,45.22
2022-12-11T21:38:49.112Z,41.38
2022-12-11T21:41:19.399Z,46.03
2022-12-11T21:46:40.093Z,37.50
2022-12-11T21:49:09.291Z,41.85
2022-12-11T21:51:42.661Z,43.53
2022-12-11T21:54:17.391Z,43.28
2022-12-11T21:56:46.760Z,42.00
2022-12-11T21:59:15.971Z,39.40
2022-12-11T22:01:47.181Z,45.63
2022-12-11T22:04:16.701Z,44.47
2022-12-11T22:06:47.262Z,43.80
2022-12-11T22:09:16.319Z,42.42
2022-12-11T22:11:45.318Z,42.97
2022-12-11T22:14:14.535Z,43.38
2022-12-11T22:16:43.667Z,37.67
2022-12-11T22:19:13.886Z,46.15
2022-12-11T22:21:42.263Z,40.40
2022-12-11T22:24:10.844Z,41.47
2022-12-11T22:26:40.131Z,38.90
2022-12-11T22:29:10.583Z,43.17
2022-12-11T22:31:38.903Z,39.10
2022-12-11T22:34:07.214Z,43.92
2022-12-11T22:36:38.072Z,42.00
2022-12-11T22:39:06.394Z,42.85
2022-12-11T22:41:38.381Z,41.05
2022-12-11T22:44:06.547Z,41.90
2022-12-11T22:46:35.010Z,45.17
2022-12-11T22:49:03.190Z,48.70
2022-12-11T22:51:31.404Z,51.63
2022-12-11T22:54:01.439Z,47.50
2022-12-11T22:56:29.726Z,42.55
2022-12-11T22:58:58.788Z,44.10
2022-12-11T23:01:28.554Z,44.83
2022-12-11T23:03:56.756Z,43.70
2022-12-11T23:06:26.180Z,41.78
2022-12-11T23:08:58.336Z,43.63
2022-12-11T23:11:29.774Z,45.55
2022-12-11T23:13:58.773Z,43.05
2022-12-11T23:16:28.447Z,41.47
2022-12-11T23:18:59.079Z,41.05
2022-12-11T23:21:29.459Z,40.88
2022-12-11T23:23:58.505Z,45.30
2022-12-11T23:26:29.400Z,47.75
2022-12-11T23:28:59.399Z,46.47
2022-12-11T23:31:28.213Z,44.72
2022-12-11T23:33:56.539Z,44.00
2022-12-11T23:36:26.225Z,48.55
2022-12-11T23:38:55.295Z,47.83
2022-12-11T23:41:24.335Z,49.42
2022-12-11T23:43:54.312Z,44.95
2022-12-11T23:46:25.723Z,44.28
2022-12-11T23:48:54.775Z,46.45
2022-12-11T23:51:25.009Z,48.25
2022-12-11T23:53:54.302Z,46.03
2022-12-11T23:56:25.068Z,46.33
2022-12-11T23:58:55.260Z,45.80
